sensor_id;sensor_type;location;lat;lon;timestamp;pressure;altitude;pressure_sealevel;temperature;humidity
35888;BME280;21990;42.540;23.496;2023-04-27T00:00:19;93150.03;;;7.34;65.30
35888;BME280;21990;42.540;23.496;2023-04-27T00:02:44;93150.53;;;7.32;65.29
35888;BME280;21990;42.540;23.496;2023-04-27T00:05:10;93145.69;;;7.33;64.53
35888;BME280;21990;42.540;23.496;2023-04-27T00:07:35;93149.78;;;7.32;65.25
35888;BME280;21990;42.540;23.496;2023-04-27T00:10:01;93152.06;;;7.33;64.39
35888;BME280;21990;42.540;23.496;2023-04-27T00:12:26;93156.97;;;7.27;64.69
35888;BME280;21990;42.540;23.496;2023-04-27T00:14:51;93168.47;;;7.24;65.04
35888;BME280;21990;42.540;23.496;2023-04-27T00:17:17;93158.25;;;7.26;64.95
35888;BME280;21990;42.540;23.496;2023-04-27T00:19:42;93156.50;;;7.23;64.81
35888;BME280;21990;42.540;23.496;2023-04-27T00:22:08;93164.34;;;7.25;64.67
35888;BME280;21990;42.540;23.496;2023-04-27T00:24:33;93156.19;;;7.27;65.20
35888;BME280;21990;42.540;23.496;2023-04-27T00:26:59;93165.13;;;7.25;64.81
35888;BME280;21990;42.540;23.496;2023-04-27T00:29:24;93171.47;;;7.26;64.71
35888;BME280;21990;42.540;23.496;2023-04-27T00:31:50;93166.09;;;7.28;64.63
35888;BME280;21990;42.540;23.496;2023-04-27T00:34:15;93172.00;;;7.24;64.37
35888;BME280;21990;42.540;23.496;2023-04-27T00:36:40;93166.94;;;7.23;64.71
35888;BME280;21990;42.540;23.496;2023-04-27T00:39:06;93165.41;;;7.22;64.73
35888;BME280;21990;42.540;23.496;2023-04-27T00:41:31;93167.16;;;7.25;64.73
35888;BME280;21990;42.540;23.496;2023-04-27T00:43:56;93182.22;;;7.22;64.61
35888;BME280;21990;42.540;23.496;2023-04-27T00:46:22;93172.81;;;7.19;63.95
35888;BME280;21990;42.540;23.496;2023-04-27T00:48:48;93180.97;;;7.17;63.78
35888;BME280;21990;42.540;23.496;2023-04-27T00:51:13;93182.78;;;7.14;64.14
35888;BME280;21990;42.540;23.496;2023-04-27T00:53:39;93177.41;;;7.16;64.77
35888;BME280;21990;42.540;23.496;2023-04-27T00:56:06;93183.53;;;7.15;63.83
35888;BME280;21990;42.540;23.496;2023-04-27T00:58:31;93182.53;;;7.12;64.54
35888;BME280;21990;42.540;23.496;2023-04-27T01:00:57;93180.25;;;7.11;63.71
35888;BME280;21990;42.540;23.496;2023-04-27T01:03:22;93177.94;;;7.15;63.85
35888;BME280;21990;42.540;23.496;2023-04-27T01:05:48;93186.09;;;7.13;63.71
35888;BME280;21990;42.540;23.496;2023-04-27T01:08:13;93187.91;;;7.10;64.21
35888;BME280;21990;42.540;23.496;2023-04-27T01:10:39;93190.44;;;7.08;63.73
35888;BME280;21990;42.540;23.496;2023-04-27T01:13:05;93192.50;;;7.08;63.89
35888;BME280;21990;42.540;23.496;2023-04-27T01:15:30;93193.53;;;7.05;63.88
35888;BME280;21990;42.540;23.496;2023-04-27T01:17:56;93204.22;;;7.06;64.20
35888;BME280;21990;42.540;23.496;2023-04-27T01:20:22;93196.59;;;7.07;63.58
35888;BME280;21990;42.540;23.496;2023-04-27T01:22:47;93188.75;;;7.00;63.82
35888;BME280;21990;42.540;23.496;2023-04-27T01:25:12;93199.41;;;7.01;63.67
35888;BME280;21990;42.540;23.496;2023-04-27T01:27:38;93200.72;;;6.95;64.00
35888;BME280;21990;42.540;23.496;2023-04-27T01:30:03;93197.66;;;6.93;64.20
35888;BME280;21990;42.540;23.496;2023-04-27T01:32:29;93193.59;;;6.94;63.85
35888;BME280;21990;42.540;23.496;2023-04-27T01:34:54;93188.78;;;6.89;63.94
35888;BME280;21990;42.540;23.496;2023-04-27T01:37:20;93199.75;;;6.87;63.83
35888;BME280;21990;42.540;23.496;2023-04-27T01:39:45;93202.31;;;6.85;64.46
35888;BME280;21990;42.540;23.496;2023-04-27T01:42:11;93206.41;;;6.84;63.63
35888;BME280;21990;42.540;23.496;2023-04-27T01:44:36;93211.75;;;6.82;63.24
35888;BME280;21990;42.540;23.496;2023-04-27T01:47:02;93203.13;;;6.74;63.82
35888;BME280;21990;42.540;23.496;2023-04-27T01:49:27;93201.59;;;6.73;64.06
35888;BME280;21990;42.540;23.496;2023-04-27T01:51:53;93194.72;;;6.74;63.84
35888;BME280;21990;42.540;23.496;2023-04-27T01:54:18;93192.97;;;6.71;63.50
35888;BME280;21990;42.540;23.496;2023-04-27T01:56:43;93200.66;;;6.65;63.20
35888;BME280;21990;42.540;23.496;2023-04-27T01:59:09;93196.81;;;6.62;63.97
35888;BME280;21990;42.540;23.496;2023-04-27T02:01:34;93188.19;;;6.60;63.72
35888;BME280;21990;42.540;23.496;2023-04-27T02:04:00;93202.22;;;6.55;63.86
35888;BME280;21990;42.540;23.496;2023-04-27T02:06:25;93196.66;;;6.49;64.02
35888;BME280;21990;42.540;23.496;2023-04-27T02:08:51;93198.66;;;6.54;63.65
35888;BME280;21990;42.540;23.496;2023-04-27T02:11:17;93202.47;;;6.51;63.88
35888;BME280;21990;42.540;23.496;2023-04-27T02:13:42;93204.03;;;6.47;63.57
35888;BME280;21990;42.540;23.496;2023-04-27T02:16:07;93206.06;;;6.46;63.79
35888;BME280;21990;42.540;23.496;2023-04-27T02:18:33;93210.16;;;6.45;63.96
35888;BME280;21990;42.540;23.496;2023-04-27T02:21:00;93206.09;;;6.41;63.56
35888;BME280;21990;42.540;23.496;2023-04-27T02:23:25;93199.22;;;6.42;63.50
35888;BME280;21990;42.540;23.496;2023-04-27T02:25:51;93210.41;;;6.42;63.66
35888;BME280;21990;42.540;23.496;2023-04-27T02:28:16;93211.19;;;6.37;63.56
35888;BME280;21990;42.540;23.496;2023-04-27T02:30:41;93212.19;;;6.39;63.62
35888;BME280;21990;42.540;23.496;2023-04-27T02:33:07;93212.47;;;6.36;63.67
35888;BME280;21990;42.540;23.496;2023-04-27T02:35:32;93208.69;;;6.28;64.02
35888;BME280;21990;42.540;23.496;2023-04-27T02:37:58;93211.19;;;6.31;63.81
35888;BME280;21990;42.540;23.496;2023-04-27T02:40:23;93215.53;;;6.32;63.30
35888;BME280;21990;42.540;23.496;2023-04-27T02:42:49;93209.22;;;6.26;63.20
35888;BME280;21990;42.540;23.496;2023-04-27T02:45:15;93214.03;;;6.20;63.83
35888;BME280;21990;42.540;23.496;2023-04-27T02:47:40;93212.78;;;6.21;63.65
35888;BME280;21990;42.540;23.496;2023-04-27T02:50:06;93221.94;;;6.22;63.43
35888;BME280;21990;42.540;23.496;2023-04-27T02:52:31;93223.97;;;6.21;63.55
35888;BME280;21990;42.540;23.496;2023-04-27T02:54:56;93229.06;;;6.17;63.96
35888;BME280;21990;42.540;23.496;2023-04-27T02:57:22;93222.47;;;6.14;63.85
35888;BME280;21990;42.540;23.496;2023-04-27T02:59:47;93230.59;;;6.12;63.95
35888;BME280;21990;42.540;23.496;2023-04-27T03:02:13;93217.38;;;6.07;63.28
35888;BME280;21990;42.540;23.496;2023-04-27T03:04:38;93222.97;;;6.13;63.55
35888;BME280;21990;42.540;23.496;2023-04-27T03:07:03;93225.75;;;6.07;63.82
35888;BME280;21990;42.540;23.496;2023-04-27T03:09:29;93227.31;;;6.03;63.83
35888;BME280;21990;42.540;23.496;2023-04-27T03:11:54;93224.75;;;5.99;64.29
35888;BME280;21990;42.540;23.496;2023-04-27T03:14:20;93221.97;;;5.99;64.07
35888;BME280;21990;42.540;23.496;2023-04-27T03:16:47;93226.81;;;5.99;64.01
35888;BME280;21990;42.540;23.496;2023-04-27T03:19:12;93228.34;;;5.94;63.61
35888;BME280;21990;42.540;23.496;2023-04-27T03:21:38;93228.09;;;5.92;63.64
35888;BME280;21990;42.540;23.496;2023-04-27T03:24:03;93226.81;;;5.93;64.05
35888;BME280;21990;42.540;23.496;2023-04-27T03:26:29;93233.44;;;5.90;64.36
35888;BME280;21990;42.540;23.496;2023-04-27T03:28:54;93224.53;;;5.92;63.41
35888;BME280;21990;42.540;23.496;2023-04-27T03:31:19;93237.00;;;5.91;63.67
35888;BME280;21990;42.540;23.496;2023-04-27T03:33:45;93237.00;;;5.91;62.95
35888;BME280;21990;42.540;23.496;2023-04-27T03:36:11;93245.88;;;5.89;63.65
35888;BME280;21990;42.540;23.496;2023-04-27T03:38:36;93247.91;;;5.89;64.00
35888;BME280;21990;42.540;23.496;2023-04-27T03:41:01;93244.34;;;5.88;63.11
35888;BME280;21990;42.540;23.496;2023-04-27T03:43:27;93256.31;;;5.83;63.86
35888;BME280;21990;42.540;23.496;2023-04-27T03:45:52;93259.09;;;5.89;63.79
35888;BME280;21990;42.540;23.496;2023-04-27T03:48:18;93254.53;;;5.91;63.53
35888;BME280;21990;42.540;23.496;2023-04-27T03:50:43;93262.16;;;5.80;63.73
35888;BME280;21990;42.540;23.496;2023-04-27T03:53:09;93261.38;;;5.79;63.82
35888;BME280;21990;42.540;23.496;2023-04-27T03:55:41;93261.91;;;5.83;64.51
35888;BME280;21990;42.540;23.496;2023-04-27T03:58:07;93261.91;;;5.83;63.64
35888;BME280;21990;42.540;23.496;2023-04-27T04:00:34;93264.19;;;5.90;63.86
35888;BME280;21990;42.540;23.496;2023-04-27T04:03:00;93276.91;;;5.97;63.78
35888;BME280;21990;42.540;23.496;2023-04-27T04:05:25;93274.38;;;5.99;63.20
35888;BME280;21990;42.540;23.496;2023-04-27T04:07:50;93280.44;;;5.97;63.57
35888;BME280;21990;42.540;23.496;2023-04-27T04:10:16;93287.31;;;6.02;63.66
35888;BME280;21990;42.540;23.496;2023-04-27T04:12:41;93286.56;;;6.07;63.05
35888;BME280;21990;42.540;23.496;2023-04-27T04:15:07;93286.28;;;6.22;63.35
35888;BME280;21990;42.540;23.496;2023-04-27T04:17:32;93273.72;;;6.50;61.81
35888;BME280;21990;42.540;23.496;2023-04-27T04:19:58;93287.13;;;6.80;61.89
35888;BME280;21990;42.540;23.496;2023-04-27T04:22:24;93287.28;;;6.98;59.62
35888;BME280;21990;42.540;23.496;2023-04-27T04:24:49;93292.75;;;7.26;60.21
35888;BME280;21990;42.540;23.496;2023-04-27T04:27:15;93290.06;;;7.50;58.54
35888;BME280;21990;42.540;23.496;2023-04-27T04:29:41;93297.31;;;7.70;57.52
35888;BME280;21990;42.540;23.496;2023-04-27T04:32:06;93300.94;;;7.95;58.31
35888;BME280;21990;42.540;23.496;2023-04-27T04:34:33;93292.09;;;8.15;55.35
35888;BME280;21990;42.540;23.496;2023-04-27T04:36:58;93301.16;;;8.27;57.26
35888;BME280;21990;42.540;23.496;2023-04-27T04:39:24;93298.75;;;8.42;55.70
35888;BME280;21990;42.540;23.496;2023-04-27T04:41:51;93293.56;;;8.51;55.88
35888;BME280;21990;42.540;23.496;2023-04-27T04:44:16;93296.84;;;8.55;54.80
35888;BME280;21990;42.540;23.496;2023-04-27T04:46:42;93306.94;;;8.64;55.00
35888;BME280;21990;42.540;23.496;2023-04-27T04:49:07;93298.13;;;8.54;54.58
35888;BME280;21990;42.540;23.496;2023-04-27T04:51:33;93312.66;;;8.29;55.15
35888;BME280;21990;42.540;23.496;2023-04-27T04:53:58;93317.38;;;8.09;55.69
35888;BME280;21990;42.540;23.496;2023-04-27T04:56:23;93321.41;;;7.84;56.42
35888;BME280;21990;42.540;23.496;2023-04-27T04:58:49;93311.38;;;7.64;56.77
35888;BME280;21990;42.540;23.496;2023-04-27T05:01:15;93322.13;;;7.55;57.31
35888;BME280;21990;42.540;23.496;2023-04-27T05:03:41;93326.53;;;7.45;57.15
35888;BME280;21990;42.540;23.496;2023-04-27T05:06:06;93325.81;;;7.33;57.01
35888;BME280;21990;42.540;23.496;2023-04-27T05:08:31;93327.91;;;7.27;57.94
35888;BME280;21990;42.540;23.496;2023-04-27T05:10:57;93339.38;;;7.24;57.54
35888;BME280;21990;42.540;23.496;2023-04-27T05:13:22;93340.16;;;7.19;58.63
35888;BME280;21990;42.540;23.496;2023-04-27T05:15:49;93346.81;;;7.15;58.17
35888;BME280;21990;42.540;23.496;2023-04-27T05:18:14;93334.31;;;7.16;57.36
35888;BME280;21990;42.540;23.496;2023-04-27T05:20:40;93341.72;;;7.14;58.32
35888;BME280;21990;42.540;23.496;2023-04-27T05:23:05;93346.81;;;7.10;58.47
35888;BME280;21990;42.540;23.496;2023-04-27T05:25:33;93347.81;;;7.12;59.38
35888;BME280;21990;42.540;23.496;2023-04-27T05:28:05;93339.16;;;7.16;59.30
35888;BME280;21990;42.540;23.496;2023-04-27T05:30:30;93346.56;;;7.13;58.26
35888;BME280;21990;42.540;23.496;2023-04-27T05:32:59;93349.09;;;7.17;58.72
35888;BME280;21990;42.540;23.496;2023-04-27T05:35:25;93356.50;;;7.14;58.44
35888;BME280;21990;42.540;23.496;2023-04-27T05:37:50;93366.66;;;7.12;58.77
35888;BME280;21990;42.540;23.496;2023-04-27T05:40:16;93353.16;;;7.16;58.79
35888;BME280;21990;42.540;23.496;2023-04-27T05:42:42;93355.97;;;7.16;58.25
35888;BME280;21990;42.540;23.496;2023-04-27T05:45:10;93353.41;;;7.18;58.68
35888;BME280;21990;42.540;23.496;2023-04-27T05:47:36;93357.22;;;7.21;58.61
35888;BME280;21990;42.540;23.496;2023-04-27T05:50:02;93356.44;;;7.20;59.22
35888;BME280;21990;42.540;23.496;2023-04-27T05:52:28;93349.56;;;7.21;58.94
35888;BME280;21990;42.540;23.496;2023-04-27T05:54:55;93352.63;;;7.23;59.67
35888;BME280;21990;42.540;23.496;2023-04-27T05:57:21;93355.94;;;7.27;58.92
35888;BME280;21990;42.540;23.496;2023-04-27T05:59:46;93355.44;;;7.23;58.35
35888;BME280;21990;42.540;23.496;2023-04-27T06:02:12;93357.97;;;7.27;58.98
35888;BME280;21990;42.540;23.496;2023-04-27T06:04:37;93360.72;;;7.32;59.20
35888;BME280;21990;42.540;23.496;2023-04-27T06:07:07;93362.97;;;7.39;58.46
35888;BME280;21990;42.540;23.496;2023-04-27T06:09:32;93362.19;;;7.44;58.53
35888;BME280;21990;42.540;23.496;2023-04-27T06:11:57;93365.19;;;7.57;59.73
35888;BME280;21990;42.540;23.496;2023-04-27T06:14:23;93357.72;;;7.71;58.12
35888;BME280;21990;42.540;23.496;2023-04-27T06:16:49;93359.22;;;7.78;59.08
35888;BME280;21990;42.540;23.496;2023-04-27T06:19:14;93364.00;;;7.83;58.81
35888;BME280;21990;42.540;23.496;2023-04-27T06:21:40;93362.44;;;7.87;58.02
35888;BME280;21990;42.540;23.496;2023-04-27T06:24:05;93361.66;;;7.92;57.78
35888;BME280;21990;42.540;23.496;2023-04-27T06:26:31;93362.63;;;8.00;57.42
35888;BME280;21990;42.540;23.496;2023-04-27T06:28:56;93354.69;;;8.04;56.58
35888;BME280;21990;42.540;23.496;2023-04-27T06:31:22;93361.25;;;8.13;56.63
35888;BME280;21990;42.540;23.496;2023-04-27T06:33:47;93369.81;;;8.26;57.44
35888;BME280;21990;42.540;23.496;2023-04-27T06:36:12;93363.03;;;8.45;58.18
35888;BME280;21990;42.540;23.496;2023-04-27T06:38:38;93362.00;;;8.73;57.71
35888;BME280;21990;42.540;23.496;2023-04-27T06:41:03;93364.84;;;8.97;57.19
35888;BME280;21990;42.540;23.496;2023-04-27T06:43:29;93357.38;;;9.24;56.67
35888;BME280;21990;42.540;23.496;2023-04-27T06:45:54;93355.94;;;9.54;56.01
35888;BME280;21990;42.540;23.496;2023-04-27T06:48:20;93356.25;;;9.70;55.32
35888;BME280;21990;42.540;23.496;2023-04-27T06:50:46;93361.13;;;9.88;56.67
35888;BME280;21990;42.540;23.496;2023-04-27T06:53:11;93356.56;;;10.04;54.50
35888;BME280;21990;42.540;23.496;2023-04-27T06:55:37;93350.50;;;10.13;53.61
35888;BME280;21990;42.540;23.496;2023-04-27T06:58:03;93352.72;;;10.20;54.87
35888;BME280;21990;42.540;23.496;2023-04-27T07:00:28;93359.94;;;10.34;54.57
35888;BME280;21990;42.540;23.496;2023-04-27T07:02:54;93349.13;;;10.38;53.58
35888;BME280;21990;42.540;23.496;2023-04-27T07:05:19;93356.13;;;10.31;51.44
35888;BME280;21990;42.540;23.496;2023-04-27T07:07:45;93353.63;;;10.28;53.56
35888;BME280;21990;42.540;23.496;2023-04-27T07:10:11;93361.25;;;10.14;51.82
35888;BME280;21990;42.540;23.496;2023-04-27T07:12:37;93356.00;;;10.05;53.46
35888;BME280;21990;42.540;23.496;2023-04-27T07:15:03;93353.31;;;10.13;53.29
35888;BME280;21990;42.540;23.496;2023-04-27T07:17:30;93353.31;;;10.31;54.24
35888;BME280;21990;42.540;23.496;2023-04-27T07:19:55;93357.59;;;10.51;54.24
35888;BME280;21990;42.540;23.496;2023-04-27T07:22:21;93344.84;;;10.63;53.94
35888;BME280;21990;42.540;23.496;2023-04-27T07:24:46;93341.97;;;10.95;50.15
35888;BME280;21990;42.540;23.496;2023-04-27T07:27:11;93342.06;;;11.29;53.13
35888;BME280;21990;42.540;23.496;2023-04-27T07:29:39;93342.16;;;11.63;52.02
35888;BME280;21990;42.540;23.496;2023-04-27T07:32:05;93339.16;;;11.95;53.26
35888;BME280;21990;42.540;23.496;2023-04-27T07:34:31;93346.47;;;12.24;48.86
35888;BME280;21990;42.540;23.496;2023-04-27T07:36:56;93347.72;;;12.36;48.61
35888;BME280;21990;42.540;23.496;2023-04-27T07:39:21;93350.81;;;12.46;50.71
35888;BME280;21990;42.540;23.496;2023-04-27T07:41:47;93341.78;;;12.47;50.91
35888;BME280;21990;42.540;23.496;2023-04-27T07:44:14;93351.03;;;12.48;49.26
35888;BME280;21990;42.540;23.496;2023-04-27T07:46:39;93348.47;;;12.57;50.99
35888;BME280;21990;42.540;23.496;2023-04-27T07:49:05;93353.38;;;12.77;48.64
35888;BME280;21990;42.540;23.496;2023-04-27T07:51:30;93343.66;;;12.86;47.70
35888;BME280;21990;42.540;23.496;2023-04-27T07:53:56;93345.88;;;13.08;49.23
35888;BME280;21990;42.540;23.496;2023-04-27T07:56:21;93350.66;;;13.13;47.29
35888;BME280;21990;42.540;23.496;2023-04-27T07:58:46;93352.03;;;13.20;49.75
35888;BME280;21990;42.540;23.496;2023-04-27T08:01:12;93343.91;;;13.45;46.69
35888;BME280;21990;42.540;23.496;2023-04-27T08:03:37;93344.66;;;13.45;45.78
35888;BME280;21990;42.540;23.496;2023-04-27T08:06:02;93345.50;;;13.32;46.74
35888;BME280;21990;42.540;23.496;2023-04-27T08:08:28;93338.91;;;13.30;47.35
35888;BME280;21990;42.540;23.496;2023-04-27T08:10:54;93338.59;;;13.41;48.64
35888;BME280;21990;42.540;23.496;2023-04-27T08:13:19;93344.84;;;13.47;46.14
35888;BME280;21990;42.540;23.496;2023-04-27T08:15:44;93338.06;;;13.50;46.93
35888;BME280;21990;42.540;23.496;2023-04-27T08:18:10;93356.81;;;13.61;46.10
35888;BME280;21990;42.540;23.496;2023-04-27T08:20:35;93349.63;;;13.60;46.56
35888;BME280;21990;42.540;23.496;2023-04-27T08:23:01;93347.63;;;13.75;45.82
35888;BME280;21990;42.540;23.496;2023-04-27T08:25:26;93349.38;;;13.86;46.13
35888;BME280;21990;42.540;23.496;2023-04-27T08:27:58;93337.28;;;13.86;44.85
35888;BME280;21990;42.540;23.496;2023-04-27T08:30:23;93349.34;;;13.78;43.13
35888;BME280;21990;42.540;23.496;2023-04-27T08:32:48;93342.78;;;13.84;47.11
35888;BME280;21990;42.540;23.496;2023-04-27T08:35:14;93348.03;;;13.79;45.77
35888;BME280;21990;42.540;23.496;2023-04-27T08:37:39;93360.91;;;13.88;46.04
35888;BME280;21990;42.540;23.496;2023-04-27T08:40:05;93351.72;;;14.03;45.77
35888;BME280;21990;42.540;23.496;2023-04-27T08:42:32;93348.16;;;14.10;45.66
35888;BME280;21990;42.540;23.496;2023-04-27T08:44:57;93349.72;;;14.26;45.67
35888;BME280;21990;42.540;23.496;2023-04-27T08:47:23;93351.78;;;14.18;44.20
35888;BME280;21990;42.540;23.496;2023-04-27T08:49:48;93353.66;;;14.15;46.07
35888;BME280;21990;42.540;23.496;2023-04-27T08:52:14;93347.47;;;14.32;45.37
35888;BME280;21990;42.540;23.496;2023-04-27T08:54:40;93356.22;;;14.49;45.36
35888;BME280;21990;42.540;23.496;2023-04-27T08:57:12;93348.75;;;14.16;43.04
35888;BME280;21990;42.540;23.496;2023-04-27T08:59:38;93360.06;;;14.08;46.10
35888;BME280;21990;42.540;23.496;2023-04-27T09:02:04;93352.09;;;13.99;44.77
35888;BME280;21990;42.540;23.496;2023-04-27T09:04:39;93353.53;;;13.85;44.51
35888;BME280;21990;42.540;23.496;2023-04-27T09:07:14;93348.91;;;13.67;45.04
35888;BME280;21990;42.540;23.496;2023-04-27T09:09:40;93352.16;;;13.43;44.75
35888;BME280;21990;42.540;23.496;2023-04-27T09:12:15;93364.56;;;13.32;46.37
35888;BME280;21990;42.540;23.496;2023-04-27T09:14:41;93352.47;;;13.31;47.20
35888;BME280;21990;42.540;23.496;2023-04-27T09:17:07;93351.34;;;13.35;44.97
35888;BME280;21990;42.540;23.496;2023-04-27T09:19:32;93354.09;;;13.19;46.56
35888;BME280;21990;42.540;23.496;2023-04-27T09:22:07;93356.38;;;13.21;45.58
35888;BME280;21990;42.540;23.496;2023-04-27T09:24:33;93350.78;;;13.28;45.38
35888;BME280;21990;42.540;23.496;2023-04-27T09:26:59;93356.56;;;13.23;46.16
35888;BME280;21990;42.540;23.496;2023-04-27T09:29:31;93354.88;;;12.99;46.17
35888;BME280;21990;42.540;23.496;2023-04-27T09:31:57;93364.97;;;12.87;45.97
35888;BME280;21990;42.540;23.496;2023-04-27T09:34:22;93352.41;;;12.75;45.18
35888;BME280;21990;42.540;23.496;2023-04-27T09:36:47;93351.19;;;12.63;46.46
35888;BME280;21990;42.540;23.496;2023-04-27T09:39:13;93346.75;;;12.54;46.23
35888;BME280;21990;42.540;23.496;2023-04-27T09:41:39;93342.47;;;12.61;46.99
35888;BME280;21990;42.540;23.496;2023-04-27T09:44:06;93345.03;;;12.72;47.09
35888;BME280;21990;42.540;23.496;2023-04-27T09:46:31;93343.47;;;12.63;45.21
35888;BME280;21990;42.540;23.496;2023-04-27T09:48:57;93343.25;;;12.61;45.89
35888;BME280;21990;42.540;23.496;2023-04-27T09:51:23;93342.41;;;12.74;49.12
35888;BME280;21990;42.540;23.496;2023-04-27T09:53:50;93336.88;;;12.89;46.16
35888;BME280;21990;42.540;23.496;2023-04-27T10:01:44;93337.09;;;12.70;46.59
35888;BME280;21990;42.540;23.496;2023-04-27T10:04:12;93337.38;;;12.80;44.11
35888;BME280;21990;42.540;23.496;2023-04-27T10:06:52;93336.06;;;12.81;45.40
35888;BME280;21990;42.540;23.496;2023-04-27T10:09:20;93334.41;;;12.85;43.60
35888;BME280;21990;42.540;23.496;2023-04-27T10:11:48;93333.03;;;12.79;44.74
35888;BME280;21990;42.540;23.496;2023-04-27T10:14:17;93328.50;;;12.76;45.22
35888;BME280;21990;42.540;23.496;2023-04-27T10:16:43;93328.41;;;12.68;44.99
35888;BME280;21990;42.540;23.496;2023-04-27T10:19:10;93321.97;;;12.60;44.52
35888;BME280;21990;42.540;23.496;2023-04-27T10:21:35;93325.66;;;12.55;45.66
35888;BME280;21990;42.540;23.496;2023-04-27T10:24:07;93323.03;;;12.57;48.26
35888;BME280;21990;42.540;23.496;2023-04-27T10:26:33;93329.38;;;12.92;48.68
35888;BME280;21990;42.540;23.496;2023-04-27T10:29:08;93314.19;;;13.30;47.38
35888;BME280;21990;42.540;23.496;2023-04-27T10:31:34;93319.97;;;13.53;46.56
35888;BME280;21990;42.540;23.496;2023-04-27T10:34:09;93320.56;;;13.59;44.98
35888;BME280;21990;42.540;23.496;2023-04-27T10:36:38;93325.78;;;13.48;44.70
35888;BME280;21990;42.540;23.496;2023-04-27T10:39:17;93307.06;;;13.37;44.59
35888;BME280;21990;42.540;23.496;2023-04-27T10:41:50;93308.28;;;13.21;44.54
35888;BME280;21990;42.540;23.496;2023-04-27T10:44:26;93307.13;;;13.16;44.39
35888;BME280;21990;42.540;23.496;2023-04-27T10:46:55;93310.31;;;13.13;43.47
35888;BME280;21990;42.540;23.496;2023-04-27T10:49:21;93310.13;;;13.11;42.30
35888;BME280;21990;42.540;23.496;2023-04-27T10:51:48;93306.53;;;13.10;44.70
35888;BME280;21990;42.540;23.496;2023-04-27T10:54:14;93300.78;;;13.03;44.02
35888;BME280;21990;42.540;23.496;2023-04-27T10:56:39;93307.75;;;13.02;44.74
35888;BME280;21990;42.540;23.496;2023-04-27T10:59:05;93321.97;;;12.89;44.18
35888;BME280;21990;42.540;23.496;2023-04-27T11:01:31;93312.78;;;12.96;44.82
35888;BME280;21990;42.540;23.496;2023-04-27T11:03:58;93304.66;;;12.92;44.38
35888;BME280;21990;42.540;23.496;2023-04-27T11:06:24;93315.91;;;12.84;43.89
35888;BME280;21990;42.540;23.496;2023-04-27T11:08:49;93308.34;;;13.08;47.10
35888;BME280;21990;42.540;23.496;2023-04-27T11:11:16;93310.44;;;13.36;47.50
35888;BME280;21990;42.540;23.496;2023-04-27T11:13:42;93304.09;;;13.50;45.87
35888;BME280;21990;42.540;23.496;2023-04-27T11:16:08;93305.38;;;13.42;43.23
35888;BME280;21990;42.540;23.496;2023-04-27T11:18:35;93309.22;;;13.23;43.30
35888;BME280;21990;42.540;23.496;2023-04-27T11:21:05;93300.34;;;13.19;43.04
35888;BME280;21990;42.540;23.496;2023-04-27T11:23:31;93303.34;;;13.14;43.82
35888;BME280;21990;42.540;23.496;2023-04-27T11:26:34;93314.28;;;13.17;45.58
35888;BME280;21990;42.540;23.496;2023-04-27T11:31:21;93317.09;;;13.46;41.70
35888;BME280;21990;42.540;23.496;2023-04-27T11:33:47;93313.56;;;13.53;43.43
35888;BME280;21990;42.540;23.496;2023-04-27T11:36:16;93313.06;;;13.34;42.39
35888;BME280;21990;42.540;23.496;2023-04-27T11:38:41;93309.88;;;13.37;44.18
35888;BME280;21990;42.540;23.496;2023-04-27T11:41:07;93316.09;;;13.36;43.58
35888;BME280;21990;42.540;23.496;2023-04-27T11:43:33;93322.47;;;13.28;42.28
35888;BME280;21990;42.540;23.496;2023-04-27T11:46:02;93314.94;;;13.31;43.92
35888;BME280;21990;42.540;23.496;2023-04-27T11:48:28;93311.25;;;13.15;44.43
35888;BME280;21990;42.540;23.496;2023-04-27T11:50:55;93326.97;;;13.24;45.99
35888;BME280;21990;42.540;23.496;2023-04-27T11:53:29;93324.09;;;13.16;43.17
35888;BME280;21990;42.540;23.496;2023-04-27T11:55:58;93317.25;;;13.12;42.91
35888;BME280;21990;42.540;23.496;2023-04-27T11:58:23;93333.22;;;13.02;42.08
35888;BME280;21990;42.540;23.496;2023-04-27T12:00:50;93336.13;;;12.89;41.85
35888;BME280;21990;42.540;23.496;2023-04-27T12:03:15;93326.63;;;12.78;42.43
35888;BME280;21990;42.540;23.496;2023-04-27T12:05:47;93333.75;;;12.72;41.97
35888;BME280;21990;42.540;23.496;2023-04-27T12:08:14;93333.44;;;12.62;43.38
35888;BME280;21990;42.540;23.496;2023-04-27T12:10:40;93333.44;;;12.62;44.74
35888;BME280;21990;42.540;23.496;2023-04-27T12:13:05;93326.91;;;12.67;41.95
35888;BME280;21990;42.540;23.496;2023-04-27T12:15:31;93326.91;;;12.67;42.81
35888;BME280;21990;42.540;23.496;2023-04-27T12:17:57;93336.34;;;12.70;43.47
35888;BME280;21990;42.540;23.496;2023-04-27T12:20:22;93328.41;;;12.68;43.89
35888;BME280;21990;42.540;23.496;2023-04-27T12:22:50;93333.03;;;12.79;43.55
35888;BME280;21990;42.540;23.496;2023-04-27T12:25:15;93329.16;;;12.90;45.92
35888;BME280;21990;42.540;23.496;2023-04-27T12:27:42;93329.75;;;12.96;43.47
35888;BME280;21990;42.540;23.496;2023-04-27T12:30:07;93332.03;;;12.97;44.60
35888;BME280;21990;42.540;23.496;2023-04-27T12:32:33;93319.97;;;12.97;44.34
35888;BME280;21990;42.540;23.496;2023-04-27T12:34:58;93323.16;;;12.93;43.62
35888;BME280;21990;42.540;23.496;2023-04-27T12:37:24;93329.50;;;12.86;43.85
35888;BME280;21990;42.540;23.496;2023-04-27T12:39:50;93335.69;;;12.84;43.40
35888;BME280;21990;42.540;23.496;2023-04-27T12:42:15;93326.81;;;12.80;43.75
35888;BME280;21990;42.540;23.496;2023-04-27T12:44:43;93331.16;;;12.81;44.31
35888;BME280;21990;42.540;23.496;2023-04-27T12:47:08;93335.28;;;12.80;44.23
35888;BME280;21990;42.540;23.496;2023-04-27T12:49:34;93330.03;;;12.84;44.07
35888;BME280;21990;42.540;23.496;2023-04-27T12:52:00;93330.88;;;12.93;43.51
35888;BME280;21990;42.540;23.496;2023-04-27T12:54:25;93313.59;;;13.04;43.98
35888;BME280;21990;42.540;23.496;2023-04-27T12:56:52;93328.44;;;12.97;43.36